createdAt,value
2017-04-13T00:00:44.691Z,6.37
2017-04-13T00:01:42.660Z,6.89
2017-04-13T00:02:40.619Z,5.59
2017-04-13T00:03:38.564Z,6.06
2017-04-13T00:04:36.530Z,5.29
2017-04-13T00:05:34.444Z,5.57
2017-04-13T00:06:32.443Z,7.64
2017-04-13T00:07:30.396Z,5.21
2017-04-13T00:08:28.345Z,7.07
2017-04-13T00:09:26.254Z,5.53
2017-04-13T00:10:24.254Z,5.90
2017-04-13T00:11:22.180Z,5.84
2017-04-13T00:12:20.108Z,6.03
2017-04-13T00:13:18.039Z,5.07
2017-04-13T00:14:16.044Z,5.94
2017-04-13T00:15:13.999Z,6.00
2017-04-13T00:16:17.627Z,5.79
2017-04-13T00:17:15.581Z,5.71
2017-04-13T00:18:13.509Z,5.33
2017-04-13T00:19:11.415Z,6.01
2017-04-13T00:20:09.302Z,5.61
2017-04-13T00:21:07.232Z,5.63
2017-04-13T00:22:05.207Z,6.24
2017-04-13T00:23:03.143Z,7.31
2017-04-13T00:24:01.054Z,5.63
2017-04-13T00:24:58.976Z,5.69
2017-04-13T00:25:56.927Z,6.26
2017-04-13T00:26:54.848Z,7.20
2017-04-13T00:27:52.787Z,5.94
2017-04-13T00:28:50.724Z,5.19
2017-04-13T00:29:48.663Z,4.76
2017-04-13T00:30:46.628Z,5.99
2017-04-13T00:31:44.528Z,6.09
2017-04-13T00:32:42.553Z,6.17
2017-04-13T00:33:40.566Z,5.87
2017-04-13T00:34:38.446Z,5.77
2017-04-13T00:35:36.350Z,5.74
2017-04-13T00:36:34.262Z,6.13
2017-04-13T00:37:32.244Z,5.06
2017-04-13T00:38:30.159Z,7.57
2017-04-13T00:39:28.147Z,6.40
2017-04-13T00:40:26.037Z,5.36
2017-04-13T00:41:23.963Z,5.36
2017-04-13T00:42:21.918Z,6.16
2017-04-13T00:43:19.991Z,6.11
2017-04-13T00:44:18.011Z,6.04
2017-04-13T00:45:15.911Z,5.40
2017-04-13T00:46:13.841Z,6.30
2017-04-13T00:47:11.842Z,5.80
2017-04-13T00:48:09.745Z,6.56
2017-04-13T00:49:07.659Z,6.29
2017-04-13T00:50:05.555Z,5.86
2017-04-13T00:51:03.460Z,5.84
2017-04-13T00:52:01.376Z,6.66
2017-04-13T00:52:59.291Z,5.69
2017-04-13T00:53:57.263Z,6.50
2017-04-13T00:54:55.194Z,5.56
2017-04-13T00:55:53.083Z,6.29
2017-04-13T00:56:51.091Z,5.53
2017-04-13T00:57:48.976Z,7.23
2017-04-13T00:58:46.958Z,6.26
2017-04-13T00:59:44.827Z,6.09
2017-04-13T01:00:42.795Z,6.14
2017-04-13T01:01:40.726Z,5.96
2017-04-13T01:02:38.664Z,5.43
2017-04-13T01:03:36.631Z,5.46
2017-04-13T01:04:34.555Z,5.60
2017-04-13T01:05:32.493Z,6.44
2017-04-13T01:06:30.410Z,5.76
2017-04-13T01:07:28.299Z,5.80
2017-04-13T01:08:26.222Z,5.70
2017-04-13T01:09:24.154Z,6.00
2017-04-13T01:10:22.067Z,5.21
2017-04-13T01:11:20.011Z,6.03
2017-04-13T01:12:18.036Z,5.66
2017-04-13T01:13:15.998Z,7.63
2017-04-13T01:14:13.901Z,5.87
2017-04-13T01:15:11.915Z,5.20
2017-04-13T01:16:09.973Z,5.84
2017-04-13T01:17:07.952Z,5.97
2017-04-13T01:18:05.895Z,5.10
2017-04-13T01:19:04.415Z,5.29
2017-04-13T01:20:02.423Z,6.57
2017-04-13T01:21:00.331Z,5.91
2017-04-13T01:21:58.242Z,6.69
2017-04-13T01:22:56.148Z,5.00
2017-04-13T01:23:54.150Z,6.44
2017-04-13T01:24:52.138Z,5.71
2017-04-13T01:25:50.075Z,6.26
2017-04-13T01:26:48.025Z,5.60
2017-04-13T01:27:45.915Z,5.80
2017-04-13T01:28:43.885Z,5.51
2017-04-13T01:29:41.834Z,5.21
2017-04-13T01:30:39.772Z,6.70
2017-04-13T01:31:37.727Z,6.33
2017-04-13T01:32:35.712Z,5.73
2017-04-13T01:33:33.641Z,5.97
2017-04-13T01:34:31.538Z,6.11
2017-04-13T01:35:29.467Z,6.30
2017-04-13T01:36:27.485Z,6.16
2017-04-13T01:37:25.421Z,6.20
2017-04-13T01:38:23.337Z,5.36
2017-04-13T01:39:21.303Z,5.41
2017-04-13T01:40:19.243Z,6.40
2017-04-13T01:41:17.173Z,5.76
2017-04-13T01:42:15.059Z,7.17
2017-04-13T01:43:12.990Z,5.71
2017-04-13T01:44:10.882Z,6.04
2017-04-13T01:45:08.772Z,6.41
2017-04-13T01:46:06.924Z,5.19
2017-04-13T01:47:04.854Z,5.91
2017-04-13T01:48:02.757Z,6.14
2017-04-13T01:49:00.663Z,5.46
2017-04-13T01:49:58.574Z,6.16
2017-04-13T01:50:56.499Z,6.10
2017-04-13T01:51:54.559Z,6.73
2017-04-13T01:52:52.511Z,5.96
2017-04-13T01:53:50.419Z,7.63
2017-04-13T01:54:48.356Z,6.13
2017-04-13T01:55:46.283Z,5.77
2017-04-13T01:56:44.191Z,6.60
2017-04-13T01:57:42.102Z,6.21
2017-04-13T01:58:40.054Z,5.67
2017-04-13T01:59:38.027Z,6.30
2017-04-13T02:00:35.975Z,5.47
2017-04-13T02:01:33.998Z,5.70
2017-04-13T02:02:32.019Z,5.31
2017-04-13T02:03:29.959Z,5.99
2017-04-13T02:04:27.924Z,5.51
2017-04-13T02:05:26.488Z,6.70
2017-04-13T02:06:24.395Z,6.31
2017-04-13T02:07:22.378Z,5.51
2017-04-13T02:08:20.367Z,5.70
2017-04-13T02:09:18.293Z,5.21
2017-04-13T02:10:16.220Z,5.87
2017-04-13T02:11:14.137Z,6.29
2017-04-13T02:12:12.034Z,6.00
2017-04-13T02:13:09.999Z,6.31
2017-04-13T02:14:07.913Z,5.00
2017-04-13T02:15:05.839Z,6.27
2017-04-13T02:16:03.763Z,5.83
2017-04-13T02:17:01.751Z,5.33
2017-04-13T02:17:59.760Z,5.03
2017-04-13T02:18:57.639Z,5.84
2017-04-13T02:19:55.528Z,5.13
2017-04-13T02:20:53.434Z,5.03
2017-04-13T02:21:51.315Z,5.39
2017-04-13T02:22:49.223Z,5.50
2017-04-13T02:23:47.171Z,5.41
2017-04-13T02:24:45.062Z,6.26
2017-04-13T02:25:42.954Z,6.64
2017-04-13T02:26:40.867Z,5.83
2017-04-13T02:27:38.780Z,5.80
2017-04-13T02:28:36.673Z,6.70
2017-04-13T02:29:34.680Z,5.76
2017-04-13T02:30:32.614Z,5.66
2017-04-13T02:31:30.527Z,5.04
2017-04-13T02:32:28.492Z,5.20
2017-04-13T02:33:26.403Z,6.30
2017-04-13T02:34:24.296Z,5.73
2017-04-13T02:35:22.223Z,5.96
2017-04-13T02:36:20.147Z,5.33
2017-04-13T02:37:18.074Z,6.00
2017-04-13T02:38:16.015Z,6.27
2017-04-13T02:39:13.966Z,5.67
2017-04-13T02:40:11.859Z,5.64
2017-04-13T02:41:09.810Z,5.96
2017-04-13T02:42:07.739Z,6.20
2017-04-13T02:43:05.698Z,5.96
2017-04-13T02:44:03.660Z,5.27
2017-04-13T02:45:01.547Z,7.39
2017-04-13T02:45:59.467Z,5.87
2017-04-13T02:46:57.443Z,4.91
2017-04-13T02:47:55.382Z,6.03
2017-04-13T02:48:53.292Z,6.27
2017-04-13T02:49:51.207Z,5.37
2017-04-13T02:50:49.092Z,5.49
2017-04-13T02:51:47.119Z,5.51
2017-04-13T02:52:48.654Z,6.14
2017-04-13T02:53:46.570Z,5.84
2017-04-13T02:54:44.488Z,5.40
2017-04-13T02:55:42.363Z,6.80
2017-04-13T02:56:40.290Z,7.07
2017-04-13T02:57:38.190Z,5.94
2017-04-13T02:58:36.128Z,6.50
2017-04-13T02:59:34.080Z,5.17
2017-04-13T03:00:32.034Z,6.06
2017-04-13T03:01:30.003Z,6.67
2017-04-13T03:02:28.016Z,6.33
2017-04-13T03:03:25.909Z,5.83
2017-04-13T03:04:23.808Z,6.14
2017-04-13T03:05:21.741Z,6.21
2017-04-13T03:07:19.467Z,5.36
2017-04-13T03:08:17.370Z,6.56
2017-04-13T03:09:15.306Z,5.71
2017-04-13T03:10:13.247Z,5.47
2017-04-13T03:11:11.211Z,5.27
2017-04-13T03:12:09.096Z,5.60
2017-04-13T03:13:07.029Z,6.60
2017-04-13T03:14:04.930Z,6.10
2017-04-13T03:15:02.850Z,6.61
2017-04-13T03:16:00.935Z,7.11
2017-04-13T03:16:58.968Z,6.60
2017-04-13T03:17:56.868Z,6.89
2017-04-13T03:18:54.781Z,6.34
2017-04-13T03:19:52.715Z,6.54
2017-04-13T03:20:50.603Z,6.21
2017-04-13T03:21:48.501Z,5.59
2017-04-13T03:22:46.408Z,6.16
2017-04-13T03:23:44.380Z,5.99
2017-04-13T03:24:42.331Z,6.66
2017-04-13T03:25:40.246Z,5.27
2017-04-13T03:26:38.162Z,6.04
2017-04-13T03:27:36.207Z,6.41
2017-04-13T03:28:34.104Z,6.14
2017-04-13T03:29:32.050Z,6.44
2017-04-13T03:30:29.983Z,6.10
2017-04-13T03:31:27.939Z,6.47
2017-04-13T03:32:25.830Z,5.81
2017-04-13T03:33:23.772Z,5.24
2017-04-13T03:34:21.708Z,6.04
2017-04-13T03:35:19.625Z,6.04
2017-04-13T03:36:17.540Z,7.00
2017-04-13T03:37:15.435Z,5.99
2017-04-13T03:38:13.339Z,6.59
2017-04-13T03:39:11.239Z,6.70
2017-04-13T03:40:09.239Z,5.96
2017-04-13T03:41:07.149Z,6.16
2017-04-13T03:42:05.075Z,5.29
2017-04-13T03:43:02.984Z,6.04
2017-04-13T03:44:00.927Z,5.81
2017-04-13T03:44:58.843Z,5.57
2017-04-13T03:45:56.742Z,6.41
2017-04-13T03:46:54.671Z,5.93
2017-04-13T03:47:52.558Z,7.00
2017-04-13T03:48:50.444Z,6.06
2017-04-13T03:49:48.365Z,6.26
2017-04-13T03:50:46.312Z,7.36
2017-04-13T03:51:44.327Z,6.30
2017-04-13T03:52:42.216Z,6.06
2017-04-13T03:53:40.114Z,6.09
2017-04-13T03:54:38.090Z,6.46
2017-04-13T03:55:35.987Z,5.84
2017-04-13T03:56:33.971Z,6.63
2017-04-13T03:57:31.896Z,7.00
2017-04-13T03:58:29.867Z,6.36
2017-04-13T03:59:27.764Z,5.67
2017-04-13T04:00:25.723Z,5.79
2017-04-13T04:01:23.646Z,6.60
2017-04-13T04:02:21.551Z,6.20
2017-04-13T04:03:19.439Z,6.29
2017-04-13T04:04:17.387Z,5.61
2017-04-13T04:05:15.324Z,5.51
2017-04-13T04:06:13.253Z,6.24
2017-04-13T04:07:11.135Z,4.73
2017-04-13T04:08:09.042Z,4.91
2017-04-13T04:09:07.012Z,5.33
2017-04-13T04:10:04.950Z,5.59
2017-04-13T04:11:02.858Z,5.96
2017-04-13T04:12:00.879Z,5.21
2017-04-13T04:12:58.836Z,5.33
2017-04-13T04:13:56.719Z,4.90
2017-04-13T04:14:54.615Z,4.41
2017-04-13T04:15:52.525Z,4.51
2017-04-13T04:16:50.461Z,4.89
2017-04-13T04:17:48.364Z,5.20
2017-04-13T04:18:46.303Z,4.73
2017-04-13T04:19:44.191Z,5.04
2017-04-13T04:20:42.097Z,4.93
2017-04-13T04:21:40.009Z,5.00
2017-04-13T04:22:37.949Z,5.24
2017-04-13T04:23:35.891Z,5.44
2017-04-13T04:24:33.835Z,4.67
2017-04-13T04:25:31.723Z,4.70
2017-04-13T04:26:29.650Z,5.00
2017-04-13T04:27:27.610Z,5.04
2017-04-13T04:28:25.514Z,4.99
2017-04-13T04:29:23.422Z,5.20
2017-04-13T04:30:21.326Z,4.71
2017-04-13T04:31:19.251Z,4.50
2017-04-13T04:32:17.266Z,4.73
2017-04-13T04:33:15.151Z,4.60
2017-04-13T04:34:13.100Z,4.19
2017-04-13T04:35:10.999Z,4.07
2017-04-13T04:36:08.922Z,4.49
2017-04-13T04:37:06.822Z,4.91
2017-04-13T04:38:04.747Z,4.30
2017-04-13T04:39:02.732Z,4.56
2017-04-13T04:40:00.679Z,4.31
2017-04-13T04:40:58.625Z,4.46
2017-04-13T04:41:56.587Z,4.24
2017-04-13T04:42:54.478Z,3.91
2017-04-13T04:43:52.394Z,4.60
2017-04-13T04:44:50.367Z,4.69
2017-04-13T04:45:48.335Z,4.74
2017-04-13T04:46:46.238Z,4.24
2017-04-13T04:47:44.243Z,4.70
2017-04-13T04:48:42.258Z,4.66
2017-04-13T04:49:40.147Z,4.11
2017-04-13T04:50:38.079Z,4.59
2017-04-13T04:51:36.005Z,4.36
2017-04-13T04:52:33.962Z,3.81
2017-04-13T04:53:32.018Z,3.70
2017-04-13T04:54:29.970Z,4.49
2017-04-13T04:55:27.911Z,4.19
2017-04-13T04:56:25.848Z,3.84
2017-04-13T04:57:23.780Z,3.79
2017-04-13T04:58:21.715Z,4.37
2017-04-13T04:59:19.603Z,4.57
2017-04-13T05:00:17.519Z,4.76
2017-04-13T05:01:15.547Z,4.84
2017-04-13T05:02:13.501Z,4.41
2017-04-13T05:03:11.408Z,4.14
2017-04-13T05:04:09.348Z,4.44
2017-04-13T05:05:07.250Z,3.80
2017-04-13T05:06:05.168Z,4.06
2017-04-13T05:07:03.107Z,4.90
2017-04-13T05:08:01.027Z,4.36
2017-04-13T05:08:58.942Z,4.09
2017-04-13T05:09:56.871Z,4.21
2017-04-13T05:10:54.775Z,3.70
2017-04-13T05:11:52.690Z,3.76
2017-04-13T05:12:50.616Z,4.04
2017-04-13T05:13:48.551Z,3.44
2017-04-13T05:14:46.454Z,5.51
2017-04-13T05:15:44.347Z,4.04
2017-04-13T05:16:42.380Z,3.66
2017-04-13T05:17:40.316Z,3.69
2017-04-13T05:18:38.211Z,4.54
2017-04-13T05:19:37.295Z,4.37
2017-04-13T05:20:35.351Z,4.01
2017-04-13T05:21:33.303Z,3.83
2017-04-13T05:22:31.260Z,5.00
2017-04-13T05:23:29.343Z,4.83
2017-04-13T05:24:27.272Z,4.16
2017-04-13T05:25:25.162Z,5.71
2017-04-13T05:26:23.091Z,4.16
2017-04-13T05:27:20.984Z,4.40
2017-04-13T05:28:19.010Z,4.40
2017-04-13T05:29:16.928Z,3.84
2017-04-13T05:30:14.824Z,3.54
2017-04-13T05:31:12.725Z,4.41
2017-04-13T05:32:10.633Z,4.97
2017-04-13T05:33:08.539Z,4.34
2017-04-13T05:34:06.528Z,4.01
2017-04-13T05:35:04.415Z,4.59
2017-04-13T05:36:02.307Z,4.11
2017-04-13T05:37:00.235Z,4.54
2017-04-13T05:37:58.162Z,4.51
2017-04-13T05:38:56.059Z,4.46
2017-04-13T05:39:53.945Z,4.30
2017-04-13T05:40:51.886Z,4.93
2017-04-13T05:41:49.779Z,3.86
2017-04-13T05:42:47.695Z,5.29
2017-04-13T05:43:45.638Z,4.36
2017-04-13T05:44:43.543Z,4.31
2017-04-13T05:45:41.446Z,4.43
2017-04-13T05:46:39.335Z,3.94
2017-04-13T05:47:37.272Z,4.23
2017-04-13T05:48:35.249Z,4.29
2017-04-13T05:49:33.208Z,4.54
2017-04-13T05:50:31.139Z,5.23
2017-04-13T05:51:29.028Z,4.53
2017-04-13T05:52:26.965Z,4.50
2017-04-13T05:53:24.888Z,4.00
2017-04-13T05:54:22.768Z,4.34
2017-04-13T05:55:20.672Z,4.83
2017-04-13T05:56:18.562Z,4.40
2017-04-13T05:57:16.455Z,5.10
2017-04-13T05:58:14.346Z,5.41
2017-04-13T05:59:12.272Z,5.46
2017-04-13T06:00:10.159Z,5.30
2017-04-13T06:01:08.072Z,5.20
2017-04-13T06:02:05.986Z,5.16
2017-04-13T06:03:03.915Z,5.61
2017-04-13T06:04:01.824Z,5.53
2017-04-13T06:04:59.729Z,4.77
2017-04-13T06:05:58.496Z,4.97
2017-04-13T06:06:56.391Z,5.77
2017-04-13T06:07:54.310Z,4.66
2017-04-13T06:08:52.198Z,5.10
2017-04-13T06:09:50.135Z,4.76
2017-04-13T06:10:48.074Z,5.30
2017-04-13T06:11:46.034Z,5.41
2017-04-13T06:12:43.983Z,4.44
2017-04-13T06:13:41.946Z,4.99
2017-04-13T06:14:39.935Z,5.30
2017-04-13T06:15:38.041Z,5.67
2017-04-13T06:16:35.899Z,4.76
2017-04-13T06:17:33.778Z,5.21
2017-04-13T06:18:31.703Z,6.41
2017-04-13T06:19:29.649Z,4.87
2017-04-13T06:20:27.592Z,4.83
2017-04-13T06:21:25.529Z,5.53
2017-04-13T06:22:23.498Z,5.14
2017-04-13T06:23:21.509Z,4.97
2017-04-13T06:24:19.466Z,5.49
2017-04-13T06:25:17.363Z,5.37
2017-04-13T06:26:15.338Z,6.03
2017-04-13T06:27:13.343Z,5.20
2017-04-13T06:28:11.301Z,5.36
2017-04-13T06:29:09.205Z,4.70
2017-04-13T06:30:07.098Z,4.87
2017-04-13T06:31:05.027Z,4.84
2017-04-13T06:32:02.975Z,4.04
2017-04-13T06:33:00.920Z,4.96
2017-04-13T06:34:03.682Z,4.56
2017-04-13T06:35:04.068Z,4.03
2017-04-13T06:36:01.969Z,4.19
2017-04-13T06:36:59.899Z,4.31
2017-04-13T06:37:57.799Z,4.36
2017-04-13T06:38:55.726Z,4.39
2017-04-13T06:39:53.660Z,4.21
2017-04-13T06:40:51.769Z,4.37
2017-04-13T06:41:50.926Z,4.73
2017-04-13T06:42:48.823Z,4.79
2017-04-13T06:43:46.752Z,5.04
2017-04-13T06:44:44.723Z,5.14
2017-04-13T06:45:42.659Z,5.61
2017-04-13T06:46:40.618Z,6.91
2017-04-13T06:47:38.514Z,5.69
2017-04-13T06:48:36.489Z,7.56
2017-04-13T06:49:34.401Z,7.14
2017-04-13T06:50:32.330Z,8.17
2017-04-13T06:51:30.339Z,7.93
2017-04-13T06:53:51.522Z,10.76
2017-04-13T06:54:49.475Z,10.24
2017-04-13T06:55:47.419Z,11.57
2017-04-13T06:56:45.440Z,11.91
2017-04-13T06:57:45.936Z,12.81
2017-04-13T06:58:43.896Z,14.41
2017-04-13T06:59:41.833Z,12.83
2017-04-13T07:00:39.778Z,12.06
2017-04-13T07:01:37.752Z,13.74
2017-04-13T07:02:36.389Z,13.36
2017-04-13T07:03:34.303Z,14.23
2017-04-13T07:04:32.229Z,13.61
2017-04-13T07:05:30.187Z,17.96
2017-04-13T07:06:28.095Z,13.70
2017-04-13T07:07:26.031Z,13.60
2017-04-13T07:08:23.975Z,13.31
2017-04-13T07:09:21.947Z,13.44
2017-04-13T07:10:20.109Z,14.34
2017-04-13T07:11:18.092Z,14.90
2017-04-13T07:12:16.006Z,14.19
2017-04-13T07:13:13.908Z,14.50
2017-04-13T07:14:11.835Z,13.20
2017-04-13T07:15:09.786Z,12.91
2017-04-13T07:16:07.735Z,13.43
2017-04-13T07:17:05.736Z,18.31
2017-04-13T07:18:03.673Z,13.96
2017-04-13T07:19:01.615Z,16.21
2017-04-13T07:19:59.571Z,13.84
2017-04-13T07:20:57.576Z,13.06
2017-04-13T07:21:55.503Z,13.34
2017-04-13T07:22:53.468Z,15.87
2017-04-13T07:23:51.431Z,12.41
2017-04-13T07:24:49.378Z,12.90
2017-04-13T07:25:47.308Z,13.04
2017-04-13T07:26:45.231Z,14.21
2017-04-13T07:27:43.158Z,13.06
2017-04-13T07:28:41.098Z,15.07
2017-04-13T07:29:39.104Z,13.49
2017-04-13T07:30:37.085Z,14.19
2017-04-13T07:31:35.021Z,13.84
2017-04-13T07:32:32.940Z,13.39
2017-04-13T07:33:30.914Z,13.86
2017-04-13T07:34:28.857Z,14.00
2017-04-13T07:35:26.822Z,14.51
2017-04-13T07:36:24.758Z,16.26
2017-04-13T07:37:22.696Z,14.03
2017-04-13T07:38:20.620Z,13.06
2017-04-13T07:39:18.577Z,13.10
2017-04-13T07:40:16.517Z,11.63
2017-04-13T07:41:20.252Z,11.29
2017-04-13T07:42:18.195Z,12.96
2017-04-13T07:43:16.130Z,12.20
2017-04-13T07:44:14.066Z,12.00
2017-04-13T07:45:12.051Z,11.36
2017-04-13T07:46:22.330Z,13.09
2017-04-13T07:48:42.905Z,10.90
2017-04-13T07:49:40.827Z,11.79
2017-04-13T07:50:38.783Z,27.61
2017-04-13T07:51:36.792Z,96.17
2017-04-13T07:52:34.707Z,113.14
2017-04-13T07:53:32.714Z,104.70
2017-04-13T07:54:30.647Z,110.03
2017-04-13T07:55:28.584Z,105.30
2017-04-13T07:56:26.536Z,118.23
2017-04-13T07:57:24.498Z,119.46
2017-04-13T07:58:22.528Z,114.90
2017-04-13T07:59:20.448Z,98.23
2017-04-13T08:00:18.378Z,89.11
2017-04-13T08:01:16.398Z,84.30
2017-04-13T08:02:14.334Z,87.60
2017-04-13T08:03:12.307Z,84.06
2017-04-13T08:04:10.223Z,78.26
2017-04-13T08:05:08.175Z,65.46
2017-04-13T08:06:06.101Z,65.99
2017-04-13T08:07:04.032Z,56.34
2017-04-13T08:08:02.000Z,54.90
2017-04-13T08:09:00.077Z,52.11
2017-04-13T08:09:57.981Z,48.53
2017-04-13T08:10:55.920Z,48.21
2017-04-13T08:11:53.892Z,47.51
2017-04-13T08:12:51.840Z,45.34
2017-04-13T08:13:49.775Z,46.71
2017-04-13T08:14:47.697Z,41.47
2017-04-13T08:15:45.651Z,42.07
2017-04-13T08:16:43.584Z,36.11
2017-04-13T08:17:41.535Z,37.64
2017-04-13T08:18:39.562Z,35.49
2017-04-13T08:19:37.484Z,34.90
2017-04-13T08:20:35.430Z,35.97
2017-04-13T08:21:33.438Z,34.61
2017-04-13T08:22:31.361Z,36.86
2017-04-13T08:23:29.393Z,38.37
2017-04-13T08:24:27.309Z,44.96
2017-04-13T08:25:25.219Z,39.49
2017-04-13T08:26:23.170Z,44.81
2017-04-13T08:27:21.135Z,43.29
2017-04-13T08:28:19.080Z,42.94
2017-04-13T08:29:17.030Z,46.04
2017-04-13T08:30:14.975Z,45.39
2017-04-13T08:31:13.027Z,45.77
2017-04-13T08:32:11.001Z,45.99
2017-04-13T08:33:08.910Z,47.57
2017-04-13T08:34:06.848Z,47.11
2017-04-13T08:35:04.828Z,51.13
2017-04-13T08:36:02.794Z,49.67
2017-04-13T08:37:00.748Z,55.43
2017-04-13T08:37:58.691Z,56.99
2017-04-13T08:38:56.639Z,64.59
2017-04-13T08:39:54.591Z,82.59
2017-04-13T08:40:52.563Z,95.74
2017-04-13T08:41:50.503Z,96.67
2017-04-13T08:42:48.460Z,101.83
2017-04-13T08:43:46.371Z,98.14
2017-04-13T08:44:44.316Z,94.99
2017-04-13T08:45:42.352Z,89.49
2017-04-13T08:46:40.420Z,98.67
2017-04-13T08:47:38.466Z,91.36
2017-04-13T08:48:36.491Z,97.36
2017-04-13T08:49:34.381Z,97.60
2017-04-13T08:50:32.366Z,99.31
2017-04-13T08:51:30.372Z,94.17
2017-04-13T08:52:28.326Z,94.81
2017-04-13T08:53:26.283Z,92.41
2017-04-13T08:54:24.267Z,95.97
2017-04-13T08:55:22.234Z,97.89
2017-04-13T08:56:20.223Z,94.10
2017-04-13T08:57:18.162Z,91.86
2017-04-13T08:58:16.095Z,94.11
2017-04-13T08:59:14.004Z,101.37
2017-04-13T09:00:12.031Z,91.43
2017-04-13T09:01:09.993Z,97.24
2017-04-13T09:02:08.081Z,95.11
2017-04-13T09:03:06.052Z,92.10
2017-04-13T09:04:03.967Z,90.90
2017-04-13T09:05:01.963Z,88.09
2017-04-13T09:07:23.357Z,93.59
2017-04-13T09:08:21.371Z,89.69
2017-04-13T09:09:19.335Z,91.44
2017-04-13T09:10:17.263Z,87.17
2017-04-13T09:11:15.185Z,91.27
2017-04-13T09:12:13.148Z,85.69
2017-04-13T09:13:11.143Z,90.17
2017-04-13T09:14:09.102Z,91.74
2017-04-13T09:15:07.119Z,86.49
2017-04-13T09:16:05.092Z,83.51
2017-04-13T09:17:03.040Z,87.89
2017-04-13T09:18:01.095Z,89.89
2017-04-13T09:18:59.069Z,86.59
2017-04-13T09:19:56.991Z,87.19
2017-04-13T09:20:54.974Z,84.29
2017-04-13T09:21:52.944Z,82.01
2017-04-13T09:22:50.896Z,82.20
2017-04-13T09:23:48.858Z,83.46
2017-04-13T09:24:46.912Z,86.01
2017-04-13T09:25:44.995Z,82.31
2017-04-13T09:26:43.021Z,82.16
2017-04-13T09:27:41.314Z,84.17
2017-04-13T09:28:39.372Z,79.07
2017-04-13T09:29:37.336Z,81.19
2017-04-13T09:30:35.283Z,78.29
2017-04-13T09:31:33.367Z,76.03
2017-04-13T09:32:31.310Z,82.67
2017-04-13T09:33:29.248Z,83.26
2017-04-13T09:34:27.204Z,75.27
2017-04-13T09:35:25.223Z,77.73
2017-04-13T09:36:23.174Z,76.30
2017-04-13T09:37:21.144Z,75.27
2017-04-13T09:38:19.074Z,77.44
2017-04-13T09:39:17.035Z,79.80
2017-04-13T09:40:14.982Z,76.71
2017-04-13T09:41:13.098Z,79.14
2017-04-13T09:42:11.042Z,76.87
2017-04-13T09:43:08.959Z,76.86
2017-04-13T09:44:06.993Z,73.74
2017-04-13T09:45:04.932Z,78.66
2017-04-13T09:46:02.863Z,76.49
2017-04-13T09:47:00.886Z,74.06
2017-04-13T09:47:58.852Z,77.11
2017-04-13T09:48:56.946Z,75.69
2017-04-13T09:49:54.879Z,73.13
2017-04-13T09:52:15.732Z,71.16
2017-04-13T09:53:13.639Z,69.81
2017-04-13T09:54:11.594Z,74.43
2017-04-13T09:55:09.624Z,71.71
2017-04-13T09:56:07.576Z,69.34
2017-04-13T09:57:05.483Z,73.16
2017-04-13T09:58:03.485Z,71.43
2017-04-13T09:59:01.396Z,73.94
2017-04-13T09:59:59.455Z,74.10
2017-04-13T10:00:57.420Z,68.97
2017-04-13T10:01:55.381Z,69.99
2017-04-13T10:02:53.386Z,72.39
2017-04-13T10:03:51.420Z,72.10
2017-04-13T10:04:49.363Z,70.93
2017-04-13T10:05:47.281Z,69.37
2017-04-13T10:06:45.199Z,67.91
2017-04-13T10:07:43.255Z,71.36
2017-04-13T10:08:41.151Z,70.41
2017-04-13T10:09:39.099Z,67.71
2017-04-13T10:10:37.053Z,67.06
2017-04-13T10:11:34.969Z,69.03
2017-04-13T10:12:32.912Z,67.71
2017-04-13T10:13:30.907Z,67.90
2017-04-13T10:14:28.832Z,68.69
2017-04-13T10:15:26.787Z,68.26
2017-04-13T10:16:24.752Z,65.53
2017-04-13T10:17:22.708Z,62.94
2017-04-13T10:18:20.659Z,63.14
2017-04-13T10:19:18.729Z,62.89
2017-04-13T10:20:16.783Z,67.73
2017-04-13T10:21:14.773Z,66.94
2017-04-13T10:22:12.721Z,64.14
2017-04-13T10:23:10.663Z,62.89
2017-04-13T10:24:08.723Z,63.13
2017-04-13T10:25:06.885Z,66.86
2017-04-13T10:26:04.827Z,62.79
2017-04-13T10:27:02.818Z,64.29
2017-04-13T10:28:00.887Z,60.09
2017-04-13T10:28:58.886Z,62.93
2017-04-13T10:29:56.803Z,62.07
2017-04-13T10:30:55.072Z,61.17
2017-04-13T10:31:53.012Z,61.91
2017-04-13T10:32:50.967Z,62.84
2017-04-13T10:33:49.033Z,59.76
2017-04-13T10:34:46.939Z,62.49
2017-04-13T10:35:44.971Z,62.46
2017-04-13T10:36:43.067Z,59.50
2017-04-13T10:37:40.952Z,60.53
2017-04-13T10:38:38.921Z,57.91
2017-04-13T10:39:36.890Z,60.56
2017-04-13T10:40:34.836Z,57.73
2017-04-13T10:41:32.779Z,58.46
2017-04-13T10:42:30.784Z,57.90
2017-04-13T10:43:28.720Z,53.81
2017-04-13T10:44:26.674Z,53.91
2017-04-13T10:45:24.665Z,54.97
2017-04-13T10:46:22.729Z,54.64
2017-04-13T10:47:20.676Z,67.86
2017-04-13T10:48:18.742Z,63.61
2017-04-13T10:49:16.691Z,69.69
2017-04-13T10:50:14.620Z,71.66
2017-04-13T10:51:12.669Z,57.80
2017-04-13T10:52:10.591Z,61.41
2017-04-13T10:53:08.501Z,52.24
2017-04-13T10:54:06.582Z,56.43
2017-04-13T10:55:10.102Z,50.97
2017-04-13T10:56:11.928Z,54.86
2017-04-13T10:57:10.061Z,55.33
2017-04-13T10:58:08.148Z,55.47
2017-04-13T10:59:06.100Z,57.43
2017-04-13T11:00:04.179Z,58.30
2017-04-13T11:01:02.325Z,55.16
2017-04-13T11:02:00.310Z,59.53
2017-04-13T11:02:58.344Z,58.73
2017-04-13T11:03:56.322Z,55.56
2017-04-13T11:04:54.362Z,56.51
2017-04-13T11:05:52.339Z,53.84
2017-04-13T11:06:50.356Z,49.80
2017-04-13T11:07:48.285Z,50.89
2017-04-13T11:08:46.208Z,51.11
2017-04-13T11:09:44.157Z,50.20
2017-04-13T11:10:42.133Z,49.97
2017-04-13T11:11:40.085Z,60.67
2017-04-13T11:12:38.068Z,54.10
2017-04-13T11:13:36.020Z,58.43
2017-04-13T11:14:34.054Z,56.30
2017-04-13T11:15:32.003Z,57.37
2017-04-13T11:16:30.004Z,51.60
2017-04-13T11:17:27.927Z,59.41
2017-04-13T11:18:25.898Z,60.69
2017-04-13T11:19:23.827Z,57.37
2017-04-13T11:20:21.782Z,61.79
2017-04-13T11:21:19.799Z,61.69
2017-04-13T11:22:17.719Z,60.20
2017-04-13T11:23:16.400Z,54.63
2017-04-13T11:24:14.360Z,58.56
2017-04-13T11:25:12.330Z,59.07
2017-04-13T11:26:10.254Z,56.70
2017-04-13T11:27:08.224Z,58.96
2017-04-13T11:28:06.175Z,54.54
2017-04-13T11:29:04.300Z,64.84
2017-04-13T11:30:02.339Z,58.67
2017-04-13T11:31:00.464Z,54.60
2017-04-13T11:31:58.397Z,61.54
2017-04-13T11:32:56.395Z,55.23
2017-04-13T11:33:54.399Z,60.77
2017-04-13T11:34:52.345Z,53.73
2017-04-13T11:35:50.383Z,53.71
2017-04-13T11:36:48.329Z,58.33
2017-04-13T11:37:46.270Z,55.73
2017-04-13T11:38:44.200Z,58.57
2017-04-13T11:39:42.290Z,54.84
2017-04-13T11:40:40.285Z,55.09
2017-04-13T11:41:38.247Z,53.57
2017-04-13T11:42:36.294Z,54.36
2017-04-13T11:43:34.251Z,54.84
2017-04-13T11:44:32.223Z,52.46
2017-04-13T11:45:30.172Z,53.09
2017-04-13T11:46:28.150Z,54.01
2017-04-13T11:47:26.111Z,52.03
2017-04-13T11:48:24.179Z,52.27
2017-04-13T11:49:22.132Z,53.07
2017-04-13T11:50:20.061Z,48.51
2017-04-13T11:51:18.015Z,54.04
2017-04-13T11:52:16.091Z,51.11
2017-04-13T11:53:14.044Z,52.87
2017-04-13T11:54:12.034Z,55.41
2017-04-13T11:55:10.117Z,49.67
2017-04-13T11:56:08.125Z,47.06
2017-04-13T11:57:06.095Z,49.03
2017-04-13T11:58:04.132Z,47.00
2017-04-13T11:59:02.136Z,47.96
2017-04-13T12:00:00.060Z,47.81
2017-04-13T12:00:58.028Z,49.83
2017-04-13T12:01:55.954Z,52.96
2017-04-13T12:02:53.942Z,47.51
2017-04-13T12:03:51.999Z,50.71
2017-04-13T12:04:50.084Z,49.01
2017-04-13T12:05:48.041Z,46.89
2017-04-13T12:06:46.139Z,44.39
2017-04-13T12:07:44.091Z,47.83
2017-04-13T12:08:42.274Z,44.27
2017-04-13T12:09:40.199Z,44.66
2017-04-13T12:10:38.209Z,45.90
2017-04-13T12:11:37.065Z,43.24
2017-04-13T12:12:35.006Z,44.79
2017-04-13T12:13:32.962Z,39.84
2017-04-13T12:14:30.957Z,42.40
2017-04-13T12:15:28.985Z,43.97
2017-04-13T12:16:26.948Z,40.99
2017-04-13T12:17:25.607Z,41.44
2017-04-13T12:18:23.648Z,38.06
2017-04-13T12:19:21.618Z,43.57
2017-04-13T12:20:19.687Z,42.66
2017-04-13T12:21:17.783Z,40.04
2017-04-13T12:22:15.734Z,43.64
2017-04-13T12:23:13.764Z,38.97
2017-04-13T12:24:11.716Z,43.26
2017-04-13T12:25:09.716Z,37.93
2017-04-13T12:26:07.881Z,38.06
2017-04-13T12:27:05.916Z,35.99
2017-04-13T12:28:04.105Z,40.81
2017-04-13T12:29:02.203Z,36.81
2017-04-13T12:30:00.195Z,40.34
2017-04-13T12:30:58.151Z,37.83
2017-04-13T12:31:56.251Z,40.20
2017-04-13T12:32:54.251Z,37.29
2017-04-13T12:33:52.274Z,37.97
2017-04-13T12:34:50.256Z,37.30
2017-04-13T12:35:48.403Z,36.91
2017-04-13T12:36:46.344Z,35.47
2017-04-13T12:37:44.280Z,38.06
2017-04-13T12:38:42.379Z,37.47
2017-04-13T12:39:40.419Z,37.03
2017-04-13T12:40:38.369Z,33.13
2017-04-13T12:41:36.526Z,39.23
2017-04-13T12:42:34.488Z,36.10
2017-04-13T12:43:32.463Z,36.51
2017-04-13T12:44:30.415Z,38.24
2017-04-13T12:45:28.405Z,35.16
2017-04-13T12:46:26.394Z,34.79
2017-04-13T12:47:24.365Z,34.29